Durand, Wisconsin
Current Conditions -  °F | °C
As of 9:55 AM on Friday 19 Dec 2014 (Local Time) from KLUM Reporting Station
Broken Clouds Broken Clouds  
Wind Chill: 18°   Ceiling: 9500
Heat Index: 26°   Visibility: 10mi
Dew Point: 19°   Wind: 7mph
Humidity: 78%   Direction: 130°SE
Pressure: 30.28"   Gusts: NA
Location:  44.63°N, 91.97°W
Report Text: KLUM 191555Z AUTO 13006KT 10SM SCT060 SCT075 BKN095 M04/M07 A3028 RMK AO2 T10361070
Loading
Personal Weather Stations






























Interactive Weather Map New forecast layout! Learn more

10-Day Weather Forecast

Advertisements
Track Severe Weather on mobile